createdAt,value
2022-09-15T00:00:00.459Z,0
2022-09-15T00:01:00.449Z,0
2022-09-15T00:02:01.064Z,0
2022-09-15T00:03:03.952Z,0
2022-09-15T00:04:00.444Z,0
2022-09-15T00:05:00.450Z,0
2022-09-15T00:06:00.432Z,0
2022-09-15T00:07:00.452Z,0
2022-09-15T00:08:03.453Z,0
2022-09-15T00:09:00.440Z,0
2022-09-15T00:10:00.455Z,0
2022-09-15T00:11:00.493Z,0
2022-09-15T00:12:00.445Z,0
2022-09-15T00:13:00.496Z,0
2022-09-15T00:14:03.775Z,0
2022-09-15T00:15:00.449Z,0
2022-09-15T00:16:00.447Z,0
2022-09-15T00:17:01.006Z,0
2022-09-15T00:18:00.446Z,0
2022-09-15T00:19:03.614Z,0
2022-09-15T00:20:00.562Z,0
2022-09-15T00:21:00.480Z,0
2022-09-15T00:22:00.469Z,0
2022-09-15T00:23:00.455Z,0
2022-09-15T00:24:00.463Z,0
2022-09-15T00:25:03.469Z,0
2022-09-15T00:26:00.504Z,0
2022-09-15T00:27:00.597Z,0
2022-09-15T00:28:00.482Z,0
2022-09-15T00:29:00.721Z,0
2022-09-15T00:30:03.481Z,0
2022-09-15T00:31:00.879Z,0
2022-09-15T00:32:00.492Z,0
2022-09-15T00:33:00.509Z,0
2022-09-15T00:34:00.589Z,0
2022-09-15T00:35:00.475Z,0
2022-09-15T00:36:03.534Z,0
2022-09-15T00:37:00.525Z,0
2022-09-15T00:38:00.476Z,0
2022-09-15T00:39:00.492Z,0
2022-09-15T00:40:00.811Z,0
2022-09-15T00:41:03.290Z,0
2022-09-15T00:42:00.498Z,0
2022-09-15T00:43:00.394Z,0
2022-09-15T00:44:00.656Z,0
2022-09-15T00:45:00.569Z,0
2022-09-15T00:46:00.850Z,0
2022-09-15T00:47:26.533Z,0
2022-09-15T00:48:00.509Z,0
2022-09-15T00:49:00.548Z,0
2022-09-15T00:50:06.155Z,0
2022-09-15T00:51:00.504Z,0
2022-09-15T00:52:03.501Z,0
2022-09-15T00:53:00.596Z,0
2022-09-15T00:54:00.824Z,0
2022-09-15T00:55:00.542Z,0
2022-09-15T00:56:00.538Z,0
2022-09-15T00:57:00.570Z,0
2022-09-15T00:58:03.380Z,0
2022-09-15T00:59:00.548Z,0
2022-09-15T01:00:00.648Z,0
2022-09-15T01:01:00.923Z,0
2022-09-15T01:02:00.882Z,0
2022-09-15T01:03:03.582Z,0
2022-09-15T01:04:00.551Z,0
2022-09-15T01:05:06.463Z,0
2022-09-15T01:06:00.556Z,0
2022-09-15T01:07:00.559Z,0
2022-09-15T01:08:00.654Z,0
2022-09-15T01:09:03.919Z,0
2022-09-15T01:10:00.546Z,0
2022-09-15T01:11:00.573Z,0
2022-09-15T01:12:00.557Z,0
2022-09-15T01:13:00.591Z,0
2022-09-15T01:14:03.407Z,0
2022-09-15T01:15:00.548Z,0
2022-09-15T01:16:00.587Z,0
2022-09-15T01:17:00.810Z,0
2022-09-15T01:18:00.706Z,0
2022-09-15T01:19:00.685Z,0
2022-09-15T01:20:03.638Z,0
2022-09-15T01:21:00.590Z,0
2022-09-15T01:22:05.859Z,0
2022-09-15T01:23:00.575Z,0
2022-09-15T01:24:00.858Z,0
2022-09-15T01:25:03.345Z,0
2022-09-15T01:26:00.586Z,0
2022-09-15T01:27:00.570Z,0
2022-09-15T01:28:00.588Z,0
2022-09-15T01:29:00.603Z,0
2022-09-15T01:30:03.529Z,0
2022-09-15T01:31:00.573Z,0
2022-09-15T01:32:00.888Z,0
2022-09-15T01:33:00.599Z,0
2022-09-15T01:34:00.590Z,0
2022-09-15T01:35:00.598Z,0
2022-09-15T01:36:03.701Z,0
2022-09-15T01:37:00.613Z,0
2022-09-15T01:38:00.613Z,0
2022-09-15T01:39:00.768Z,0
2022-09-15T01:40:00.988Z,0
2022-09-15T01:41:03.450Z,0
2022-09-15T01:42:00.615Z,0
2022-09-15T01:43:00.632Z,0
2022-09-15T01:44:00.601Z,0
2022-09-15T01:45:00.702Z,0
2022-09-15T01:46:01.110Z,0
2022-09-15T01:47:03.672Z,0
2022-09-15T01:48:00.625Z,0
2022-09-15T01:49:00.629Z,0
2022-09-15T01:50:00.616Z,0
2022-09-15T01:51:00.616Z,0
2022-09-15T01:52:03.816Z,0
2022-09-15T01:53:00.659Z,0
2022-09-15T01:54:00.797Z,0
2022-09-15T01:55:00.618Z,0
2022-09-15T01:56:00.673Z,0
2022-09-15T01:57:00.846Z,0
2022-09-15T01:58:00.645Z,0
2022-09-15T01:59:00.643Z,0
2022-09-15T02:00:00.635Z,0
2022-09-15T02:01:01.013Z,0
2022-09-15T02:02:01.015Z,0
2022-09-15T02:03:03.702Z,0
2022-09-15T02:04:00.636Z,0
2022-09-15T02:05:00.645Z,0
2022-09-15T02:06:00.648Z,0
2022-09-15T02:07:00.631Z,0
2022-09-15T02:08:00.688Z,0
2022-09-15T02:09:00.793Z,0
2022-09-15T02:10:00.652Z,0
2022-09-15T02:11:00.651Z,0
2022-09-15T02:12:00.713Z,0
2022-09-15T02:13:00.676Z,0
2022-09-15T02:14:00.915Z,0
2022-09-15T02:15:00.655Z,0
2022-09-15T02:16:00.883Z,0
2022-09-15T02:17:00.999Z,0
2022-09-15T02:18:00.806Z,0
2022-09-15T02:19:03.682Z,0
2022-09-15T02:20:00.666Z,0
2022-09-15T02:21:00.672Z,0
2022-09-15T02:22:00.747Z,0
2022-09-15T02:23:00.698Z,0
2022-09-15T02:24:01.013Z,0
2022-09-15T02:25:00.667Z,0
2022-09-15T02:26:00.692Z,0
2022-09-15T02:27:00.704Z,0
2022-09-15T02:28:00.759Z,0
2022-09-15T02:29:00.838Z,0
2022-09-15T02:30:03.729Z,0
2022-09-15T02:31:00.684Z,0
2022-09-15T02:32:05.077Z,0
2022-09-15T02:33:00.750Z,0
2022-09-15T02:34:00.867Z,0
2022-09-15T02:35:03.602Z,0
2022-09-15T02:36:00.696Z,0
2022-09-15T02:37:00.707Z,0
2022-09-15T02:38:00.726Z,0
2022-09-15T02:39:00.880Z,0
2022-09-15T02:40:01.051Z,0
2022-09-15T02:41:03.717Z,0
2022-09-15T02:42:00.710Z,0
2022-09-15T02:43:00.713Z,0
2022-09-15T02:44:00.753Z,0
2022-09-15T02:45:00.841Z,0
2022-09-15T02:46:03.946Z,0
2022-09-15T02:47:00.710Z,0
2022-09-15T02:48:00.736Z,0
2022-09-15T02:49:00.743Z,0
2022-09-15T02:50:00.752Z,0
2022-09-15T02:51:00.726Z,0
2022-09-15T02:52:03.693Z,0
2022-09-15T02:53:00.758Z,0
2022-09-15T02:54:00.818Z,0
2022-09-15T02:55:00.745Z,0
2022-09-15T02:56:00.781Z,0
2022-09-15T02:57:03.624Z,0
2022-09-15T02:58:00.742Z,0
2022-09-15T02:59:00.746Z,0
2022-09-15T03:00:00.680Z,0
2022-09-15T03:01:01.250Z,0
2022-09-15T03:02:01.070Z,0
2022-09-15T03:03:03.730Z,0
2022-09-15T03:04:00.745Z,0
2022-09-15T03:05:00.774Z,0
2022-09-15T03:06:00.777Z,0
2022-09-15T03:07:00.739Z,0
2022-09-15T03:08:03.603Z,0
2022-09-15T03:09:01.052Z,0
2022-09-15T03:10:00.770Z,0
2022-09-15T03:11:00.752Z,0
2022-09-15T03:12:00.780Z,0
2022-09-15T03:13:00.907Z,0
2022-09-15T03:14:03.536Z,0
2022-09-15T03:15:00.766Z,0
2022-09-15T03:16:01.218Z,0
2022-09-15T03:17:00.757Z,0
2022-09-15T03:18:00.791Z,0
2022-09-15T03:19:03.522Z,0
2022-09-15T03:20:00.774Z,0
2022-09-15T03:21:00.802Z,0
2022-09-15T03:22:00.811Z,0
2022-09-15T03:23:00.811Z,0
2022-09-15T03:24:01.047Z,0
2022-09-15T03:25:03.600Z,0
2022-09-15T03:26:00.810Z,0
2022-09-15T03:27:00.785Z,0
2022-09-15T03:28:00.835Z,0
2022-09-15T03:29:00.778Z,0
2022-09-15T03:30:03.798Z,0
2022-09-15T03:31:00.800Z,0
2022-09-15T03:32:01.161Z,0
2022-09-15T03:33:00.894Z,0
2022-09-15T03:34:00.920Z,0
2022-09-15T03:35:05.496Z,0
2022-09-15T03:36:03.672Z,0
2022-09-15T03:37:00.816Z,0
2022-09-15T03:38:00.879Z,0
2022-09-15T03:39:01.072Z,0
2022-09-15T03:40:01.201Z,0
2022-09-15T03:41:03.642Z,0
2022-09-15T03:42:00.797Z,0
2022-09-15T03:43:00.831Z,0
2022-09-15T03:44:00.879Z,0
2022-09-15T03:45:00.808Z,0
2022-09-15T03:46:01.282Z,0
2022-09-15T03:47:03.631Z,0
2022-09-15T03:48:01.150Z,0
2022-09-15T03:49:00.956Z,0
2022-09-15T03:50:00.876Z,0
2022-09-15T03:51:00.848Z,0
2022-09-15T03:52:03.908Z,0
2022-09-15T03:53:05.822Z,0
2022-09-15T03:54:00.991Z,0
2022-09-15T03:55:00.828Z,0
2022-09-15T03:56:00.832Z,0
2022-09-15T03:57:03.699Z,0
2022-09-15T03:58:03.595Z,0
2022-09-15T03:59:00.884Z,0
2022-09-15T04:00:00.864Z,0
2022-09-15T04:01:01.200Z,0
2022-09-15T04:02:01.320Z,0
2022-09-15T04:03:03.615Z,0
2022-09-15T04:04:00.892Z,0
2022-09-15T04:05:00.862Z,0
2022-09-15T04:06:00.852Z,0
2022-09-15T04:07:00.892Z,0
2022-09-15T04:08:03.912Z,0
2022-09-15T04:09:01.005Z,0
2022-09-15T04:10:00.875Z,0
2022-09-15T04:11:00.855Z,0
2022-09-15T04:12:00.869Z,0
2022-09-15T04:13:00.869Z,0
2022-09-15T04:14:03.914Z,0
2022-09-15T04:15:00.878Z,0
2022-09-15T04:16:01.201Z,0
2022-09-15T04:17:00.869Z,0
2022-09-15T04:18:00.894Z,0
2022-09-15T04:19:03.993Z,0
2022-09-15T04:20:00.900Z,0
2022-09-15T04:21:00.893Z,0
2022-09-15T04:22:00.890Z,0
2022-09-15T04:23:00.894Z,0
2022-09-15T04:24:01.240Z,0
2022-09-15T04:25:00.923Z,0
2022-09-15T04:26:00.881Z,0
2022-09-15T04:27:00.892Z,0
2022-09-15T04:28:00.914Z,0
2022-09-15T04:29:07.095Z,0
2022-09-15T04:30:03.816Z,0
2022-09-15T04:31:00.990Z,0
2022-09-15T04:32:01.251Z,0
2022-09-15T04:33:00.934Z,0
2022-09-15T04:34:01.049Z,0
2022-09-15T04:35:00.960Z,0
2022-09-15T04:36:00.900Z,0
2022-09-15T04:37:00.903Z,0
2022-09-15T04:38:00.940Z,0
2022-09-15T04:39:01.253Z,0
2022-09-15T04:40:01.279Z,0
2022-09-15T04:41:00.978Z,0
2022-09-15T04:42:00.905Z,0
2022-09-15T04:43:01.023Z,0
2022-09-15T04:44:01.013Z,0
2022-09-15T04:45:00.913Z,0
2022-09-15T04:46:03.950Z,0
2022-09-15T04:47:01.589Z,0
2022-09-15T04:48:00.963Z,0
2022-09-15T04:49:00.936Z,0
2022-09-15T04:50:00.928Z,0
2022-09-15T04:51:01.115Z,0
2022-09-15T04:52:00.947Z,0
2022-09-15T04:53:00.975Z,0
2022-09-15T04:54:01.346Z,0
2022-09-15T04:55:00.958Z,0
2022-09-15T04:56:00.945Z,0
2022-09-15T04:57:05.092Z,0
2022-09-15T04:58:00.961Z,0
2022-09-15T04:59:07.031Z,0
2022-09-15T05:00:00.951Z,0
2022-09-15T05:01:01.292Z,0
2022-09-15T05:02:04.538Z,0
2022-09-15T05:03:00.826Z,0
2022-09-15T05:04:00.990Z,0
2022-09-15T05:05:00.978Z,0
2022-09-15T05:06:01.117Z,0
2022-09-15T05:07:01.008Z,0
2022-09-15T05:08:03.830Z,0
2022-09-15T05:09:01.123Z,0
2022-09-15T05:10:03.774Z,0
2022-09-15T05:11:00.977Z,0
2022-09-15T05:12:00.982Z,0
2022-09-15T05:13:04.181Z,0
2022-09-15T05:14:01.017Z,0
2022-09-15T05:15:00.978Z,0
2022-09-15T05:16:01.287Z,0
2022-09-15T05:17:00.975Z,0
2022-09-15T05:18:01.036Z,0
2022-09-15T05:19:04.057Z,0
2022-09-15T05:20:00.990Z,0
2022-09-15T05:21:01.080Z,0
2022-09-15T05:22:00.989Z,0
2022-09-15T05:23:01.470Z,0
2022-09-15T05:24:06.172Z,0
2022-09-15T05:25:01.044Z,0
2022-09-15T05:26:01.155Z,0
2022-09-15T05:27:01.013Z,0
2022-09-15T05:28:01.001Z,0
2022-09-15T05:29:01.444Z,0
2022-09-15T05:30:49.319Z,0
2022-09-15T05:33:01.005Z,0
2022-09-15T05:34:04.588Z,0
2022-09-15T05:35:06.444Z,0
2022-09-15T05:36:01.189Z,0
2022-09-15T05:37:01.116Z,0
2022-09-15T05:38:01.020Z,0
2022-09-15T05:39:01.534Z,0
2022-09-15T05:40:04.152Z,0
2022-09-15T05:41:03.907Z,0
2022-09-15T05:42:01.029Z,0
2022-09-15T05:43:02.164Z,0
2022-09-15T05:44:01.239Z,0
2022-09-15T05:45:01.210Z,0
2022-09-15T05:46:04.011Z,0
2022-09-15T05:47:01.475Z,0
2022-09-15T05:48:01.118Z,0
2022-09-15T05:49:01.244Z,0
2022-09-15T05:50:01.047Z,0
2022-09-15T05:51:01.086Z,0
2022-09-15T05:52:04.130Z,0
2022-09-15T05:53:01.047Z,0
2022-09-15T05:54:01.406Z,0
2022-09-15T05:55:06.198Z,0
2022-09-15T05:56:00.886Z,0
2022-09-15T05:57:03.864Z,0
2022-09-15T05:58:01.056Z,0
2022-09-15T05:59:01.142Z,0
2022-09-15T06:00:01.041Z,0
2022-09-15T06:01:01.117Z,0
2022-09-15T06:02:01.425Z,0
2022-09-15T06:03:04.262Z,0
2022-09-15T06:04:01.078Z,0
2022-09-15T06:05:00.898Z,0
2022-09-15T06:06:01.074Z,0
2022-09-15T06:07:01.087Z,0
2022-09-15T06:08:04.035Z,0
2022-09-15T06:09:11.073Z,0
2022-09-15T06:10:00.948Z,0
2022-09-15T06:11:01.151Z,0
2022-09-15T06:12:01.125Z,0
2022-09-15T06:13:01.101Z,0
2022-09-15T06:14:04.011Z,0
2022-09-15T06:15:01.106Z,0
2022-09-15T06:16:01.368Z,0
2022-09-15T06:17:01.156Z,0
2022-09-15T06:18:01.214Z,0
2022-09-15T06:19:04.320Z,0
2022-09-15T06:20:01.226Z,0
2022-09-15T06:21:01.382Z,0
2022-09-15T06:22:01.155Z,0
2022-09-15T06:23:01.336Z,0
2022-09-15T06:24:02.285Z,0
2022-09-15T06:25:04.225Z,0
2022-09-15T06:26:01.130Z,0
2022-09-15T06:27:01.193Z,0
2022-09-15T06:28:01.105Z,0
2022-09-15T06:29:01.120Z,5
2022-09-15T06:30:04.072Z,5
2022-09-15T06:31:01.108Z,5
2022-09-15T06:32:02.049Z,5
2022-09-15T06:33:01.598Z,5
2022-09-15T06:34:01.998Z,5
2022-09-15T06:35:04.034Z,5
2022-09-15T06:36:01.086Z,5
2022-09-15T06:37:01.135Z,5
2022-09-15T06:38:01.143Z,5
2022-09-15T06:39:01.310Z,5
2022-09-15T06:40:01.645Z,5
2022-09-15T06:41:04.215Z,0
2022-09-15T06:42:16.179Z,5
2022-09-15T06:43:01.167Z,5
2022-09-15T06:44:01.297Z,5
2022-09-15T06:45:01.138Z,5
2022-09-15T06:46:04.602Z,10
2022-09-15T06:47:01.181Z,10
2022-09-15T06:48:32.220Z,10
2022-09-15T06:49:01.196Z,10
2022-09-15T06:50:01.145Z,5
2022-09-15T06:51:01.153Z,5
2022-09-15T06:52:00.983Z,5
2022-09-15T06:53:01.156Z,5
2022-09-15T06:54:00.844Z,5
2022-09-15T06:55:01.175Z,5
2022-09-15T06:56:01.165Z,5
2022-09-15T06:57:03.981Z,5
2022-09-15T06:58:01.264Z,5
2022-09-15T06:59:01.452Z,5
2022-09-15T07:00:01.167Z,5
2022-09-15T07:01:01.183Z,5
2022-09-15T07:02:07.466Z,5
2022-09-15T07:03:01.877Z,5
2022-09-15T07:04:01.378Z,5
2022-09-15T07:05:01.051Z,5
2022-09-15T07:06:01.164Z,5
2022-09-15T07:07:01.208Z,5
2022-09-15T07:08:01.024Z,5
2022-09-15T07:09:01.328Z,5
2022-09-15T07:10:01.171Z,5
2022-09-15T07:11:01.204Z,5
2022-09-15T07:12:01.179Z,10
2022-09-15T07:13:04.326Z,10
2022-09-15T07:14:01.328Z,10
2022-09-15T07:15:01.209Z,10
2022-09-15T07:16:01.695Z,10
2022-09-15T07:17:01.293Z,10
2022-09-15T07:18:01.202Z,10
2022-09-15T07:19:01.060Z,10
2022-09-15T07:20:01.265Z,10
2022-09-15T07:21:01.210Z,10
2022-09-15T07:22:01.196Z,10
2022-09-15T07:23:01.199Z,10
2022-09-15T07:24:10.089Z,10
2022-09-15T07:25:01.192Z,10
2022-09-15T07:26:01.204Z,10
2022-09-15T07:27:01.240Z,10
2022-09-15T07:28:01.212Z,10
2022-09-15T07:29:04.393Z,10
2022-09-15T07:30:01.257Z,10
2022-09-15T07:31:01.289Z,10
2022-09-15T07:32:01.730Z,10
2022-09-15T07:33:01.232Z,10
2022-09-15T07:34:01.436Z,10
2022-09-15T07:35:07.610Z,10
2022-09-15T07:36:01.221Z,10
2022-09-15T07:37:01.219Z,10
2022-09-15T07:38:01.225Z,15
2022-09-15T07:39:01.256Z,15
2022-09-15T07:40:04.615Z,10
2022-09-15T07:41:01.226Z,10
2022-09-15T07:42:01.261Z,5
2022-09-15T07:43:01.264Z,10
2022-09-15T07:44:01.319Z,10
2022-09-15T07:45:01.269Z,10
2022-09-15T07:46:04.697Z,10
2022-09-15T07:47:01.283Z,10
2022-09-15T07:48:01.242Z,15
2022-09-15T07:49:01.497Z,15
2022-09-15T07:50:01.267Z,15
2022-09-15T07:51:04.522Z,15
2022-09-15T07:52:01.252Z,10
2022-09-15T07:53:01.255Z,10
2022-09-15T07:55:01.257Z,15
2022-09-15T07:56:01.269Z,20
2022-09-15T07:57:04.399Z,20
2022-09-15T07:58:01.253Z,20
2022-09-15T07:59:01.345Z,25
2022-09-15T08:00:01.264Z,30
2022-09-15T08:01:01.938Z,40
2022-09-15T08:02:04.854Z,30
2022-09-15T08:03:01.419Z,25
2022-09-15T08:04:01.715Z,20
2022-09-15T08:05:01.270Z,20
2022-09-15T08:06:01.275Z,25
2022-09-15T08:07:01.408Z,25
2022-09-15T08:08:04.089Z,35
2022-09-15T08:09:08.120Z,55
2022-09-15T08:10:01.287Z,60
2022-09-15T08:11:01.304Z,40
2022-09-15T08:12:01.319Z,40
2022-09-15T08:13:04.316Z,60
2022-09-15T08:14:01.309Z,30
2022-09-15T08:15:01.364Z,25
2022-09-15T08:16:01.866Z,20
2022-09-15T08:17:01.322Z,20
2022-09-15T08:18:01.306Z,20
2022-09-15T08:19:04.698Z,20
2022-09-15T08:20:01.163Z,20
2022-09-15T08:21:01.304Z,20
2022-09-15T08:22:01.305Z,20
2022-09-15T08:23:01.432Z,20
2022-09-15T08:24:04.337Z,25
2022-09-15T08:25:01.322Z,25
2022-09-15T08:26:01.358Z,25
2022-09-15T08:27:01.316Z,30
2022-09-15T08:28:01.360Z,30
2022-09-15T08:29:01.468Z,30
2022-09-15T08:30:04.341Z,30
2022-09-15T08:31:01.626Z,35
2022-09-15T08:32:01.336Z,25
2022-09-15T08:33:01.352Z,25
2022-09-15T08:34:01.497Z,20
2022-09-15T08:35:04.227Z,20
2022-09-15T08:36:01.321Z,20
2022-09-15T08:37:01.356Z,15
2022-09-15T08:38:01.329Z,10
2022-09-15T08:39:01.425Z,10
2022-09-15T08:40:01.723Z,10
2022-09-15T08:41:04.374Z,10
2022-09-15T08:42:01.348Z,10
2022-09-15T08:43:01.357Z,10
2022-09-15T08:44:01.457Z,10
2022-09-15T08:45:01.431Z,10
2022-09-15T08:46:04.694Z,10
2022-09-15T08:47:01.612Z,10
2022-09-15T08:48:01.373Z,10
2022-09-15T08:49:06.615Z,10
2022-09-15T08:50:01.843Z,10
2022-09-15T08:51:04.494Z,10
2022-09-15T08:52:04.375Z,10
2022-09-15T08:53:01.382Z,10
2022-09-15T08:54:01.516Z,10
2022-09-15T08:55:01.422Z,10
2022-09-15T08:56:01.375Z,10
2022-09-15T08:57:04.152Z,5
2022-09-15T08:58:01.381Z,5
2022-09-15T08:59:01.367Z,5
2022-09-15T09:00:01.391Z,5
2022-09-15T09:01:01.403Z,5
2022-09-15T09:02:05.143Z,5
2022-09-15T09:03:01.696Z,5
2022-09-15T09:04:01.388Z,5
2022-09-15T09:05:01.500Z,5
2022-09-15T09:06:01.400Z,5
2022-09-15T09:07:01.411Z,5
2022-09-15T09:08:04.190Z,5
2022-09-15T09:09:01.605Z,5
2022-09-15T09:10:01.426Z,5
2022-09-15T09:11:01.539Z,5
2022-09-15T09:12:01.399Z,5
2022-09-15T09:13:04.188Z,5
2022-09-15T09:14:01.397Z,5
2022-09-15T09:15:01.425Z,5
2022-09-15T09:16:05.079Z,5
2022-09-15T09:17:01.418Z,5
2022-09-15T09:18:01.430Z,5
2022-09-15T09:19:01.425Z,5
2022-09-15T09:20:01.663Z,5
2022-09-15T09:21:01.433Z,5
2022-09-15T09:22:01.414Z,5
2022-09-15T09:23:01.435Z,5
2022-09-15T09:24:04.200Z,5
2022-09-15T09:25:08.513Z,5
2022-09-15T09:26:01.433Z,5
2022-09-15T09:27:01.485Z,5
2022-09-15T09:28:01.443Z,0
2022-09-15T09:29:01.437Z,0
2022-09-15T09:30:01.460Z,5
2022-09-15T09:31:01.884Z,5
2022-09-15T09:32:01.430Z,10
2022-09-15T09:33:01.445Z,10
2022-09-15T09:34:01.701Z,10
2022-09-15T09:35:01.465Z,10
2022-09-15T09:36:01.460Z,10
2022-09-15T09:37:01.476Z,10
2022-09-15T09:38:01.452Z,10
2022-09-15T09:39:01.544Z,15
2022-09-15T09:40:04.686Z,15
2022-09-15T09:41:07.371Z,15
2022-09-15T09:42:01.476Z,15
2022-09-15T09:43:01.347Z,15
2022-09-15T09:44:01.679Z,15
2022-09-15T09:45:01.511Z,15
2022-09-15T09:46:01.849Z,20
2022-09-15T09:47:01.484Z,20
2022-09-15T09:48:06.595Z,20
2022-09-15T09:49:01.470Z,15
2022-09-15T09:50:01.768Z,15
2022-09-15T09:51:05.148Z,15
2022-09-15T09:52:01.467Z,20
2022-09-15T09:53:01.489Z,20
2022-09-15T09:54:01.661Z,25
2022-09-15T09:55:01.515Z,30
2022-09-15T09:56:04.387Z,30
2022-09-15T09:57:01.471Z,30
2022-09-15T09:58:01.331Z,30
2022-09-15T09:59:01.671Z,30
2022-09-15T10:00:01.496Z,35
2022-09-15T10:01:01.735Z,35
2022-09-15T10:02:04.775Z,30
2022-09-15T10:03:01.491Z,30
2022-09-15T10:04:01.489Z,30
2022-09-15T10:05:01.997Z,25
2022-09-15T10:06:01.509Z,25
2022-09-15T10:07:04.541Z,20
2022-09-15T10:08:01.497Z,20
2022-09-15T10:09:01.756Z,20
2022-09-15T10:10:01.537Z,15
2022-09-15T10:11:01.525Z,15
2022-09-15T10:12:01.509Z,15
2022-09-15T10:13:04.532Z,15
2022-09-15T10:14:01.522Z,15
2022-09-15T10:15:01.948Z,15
2022-09-15T10:16:01.533Z,15
2022-09-15T10:17:01.997Z,15
2022-09-15T10:18:04.511Z,15
2022-09-15T10:19:03.707Z,15
2022-09-15T10:20:01.539Z,10
2022-09-15T10:21:01.513Z,10
2022-09-15T10:22:01.546Z,15
2022-09-15T10:23:01.529Z,15
2022-09-15T10:24:04.518Z,15
2022-09-15T10:25:01.555Z,15
2022-09-15T10:26:08.541Z,15
2022-09-15T10:27:01.579Z,15
2022-09-15T10:28:01.563Z,15
2022-09-15T10:29:04.537Z,15
2022-09-15T10:30:01.425Z,15
2022-09-15T10:31:01.403Z,15
2022-09-15T10:32:02.054Z,20
2022-09-15T10:33:01.563Z,20
2022-09-15T10:34:01.603Z,20
2022-09-15T10:35:04.666Z,20
2022-09-15T10:36:01.559Z,20
2022-09-15T10:37:01.579Z,20
2022-09-15T10:38:01.609Z,20
2022-09-15T10:39:01.718Z,15
2022-09-15T10:40:04.994Z,15
2022-09-15T10:41:01.636Z,15
2022-09-15T10:42:01.571Z,10
2022-09-15T10:43:01.606Z,10
2022-09-15T10:44:01.573Z,10
2022-09-15T10:45:01.587Z,10
2022-09-15T10:46:05.677Z,10
2022-09-15T10:47:01.652Z,15
2022-09-15T10:48:01.246Z,15
2022-09-15T10:49:01.600Z,15
2022-09-15T10:50:01.620Z,15
2022-09-15T10:51:04.715Z,15
2022-09-15T10:52:01.562Z,15
2022-09-15T10:53:01.581Z,15
2022-09-15T10:54:06.547Z,15
2022-09-15T10:55:01.589Z,20
2022-09-15T10:56:02.710Z,15
2022-09-15T10:57:04.586Z,20
2022-09-15T10:58:01.596Z,20
2022-09-15T10:59:01.591Z,20
2022-09-15T11:00:01.607Z,20
2022-09-15T11:01:01.851Z,25
2022-09-15T11:02:05.150Z,25
2022-09-15T11:03:01.589Z,25
2022-09-15T11:04:01.595Z,25
2022-09-15T11:05:01.614Z,25
2022-09-15T11:06:01.600Z,20
2022-09-15T11:07:01.621Z,20
2022-09-15T11:08:04.526Z,20
2022-09-15T11:09:01.796Z,20
2022-09-15T11:10:01.675Z,20
2022-09-15T11:11:01.608Z,20
2022-09-15T11:12:01.662Z,15
2022-09-15T11:13:04.710Z,15
2022-09-15T11:14:01.600Z,15
2022-09-15T11:15:01.666Z,15
2022-09-15T11:16:01.987Z,15
2022-09-15T11:17:01.461Z,15
2022-09-15T11:18:04.424Z,15
2022-09-15T11:19:04.414Z,15
2022-09-15T11:21:01.643Z,15
2022-09-15T11:22:01.448Z,15
2022-09-15T11:23:01.625Z,15
2022-09-15T11:24:04.990Z,15
2022-09-15T11:25:01.656Z,15
2022-09-15T11:26:01.748Z,15
2022-09-15T11:27:01.639Z,15
2022-09-15T11:28:01.719Z,15
2022-09-15T11:29:04.603Z,15
2022-09-15T11:30:01.656Z,15
2022-09-15T11:31:01.951Z,15
2022-09-15T11:33:06.339Z,20
2022-09-15T11:34:01.946Z,20
2022-09-15T11:35:04.611Z,20
2022-09-15T11:36:01.653Z,20
2022-09-15T11:37:01.658Z,20
2022-09-15T11:38:01.690Z,20
2022-09-15T11:39:01.510Z,20
2022-09-15T11:40:03.491Z,20
2022-09-15T11:41:01.512Z,20
2022-09-15T11:42:01.516Z,20
2022-09-15T11:43:01.672Z,20
2022-09-15T11:44:01.531Z,20
2022-09-15T11:45:01.696Z,20
2022-09-15T11:46:10.722Z,20
2022-09-15T11:47:02.145Z,20
2022-09-15T11:48:02.075Z,20
2022-09-15T11:49:01.995Z,20
2022-09-15T11:50:10.772Z,20
2022-09-15T11:51:04.697Z,20
2022-09-15T11:52:01.539Z,20
2022-09-15T11:53:01.683Z,20
2022-09-15T11:54:01.691Z,15
2022-09-15T11:55:01.711Z,15
2022-09-15T11:56:01.689Z,15
2022-09-15T11:57:01.707Z,15
2022-09-15T11:58:01.754Z,10
2022-09-15T11:59:04.696Z,10
2022-09-15T12:00:01.705Z,10
2022-09-15T12:01:01.719Z,10
2022-09-15T12:02:05.042Z,10
2022-09-15T12:03:02.214Z,10
2022-09-15T12:05:01.886Z,10
2022-09-15T12:06:02.709Z,10
2022-09-15T12:07:04.827Z,10
2022-09-15T12:08:01.720Z,10
2022-09-15T12:09:01.835Z,15
2022-09-15T12:10:01.837Z,15
2022-09-15T12:11:01.720Z,15
2022-09-15T12:12:01.734Z,15
2022-09-15T12:13:01.765Z,15
2022-09-15T12:14:01.910Z,15
2022-09-15T12:15:01.811Z,15
2022-09-15T12:16:02.831Z,15
2022-09-15T12:17:02.424Z,15
2022-09-15T12:18:41.871Z,15
2022-09-15T12:19:01.763Z,15
2022-09-15T12:20:01.760Z,10
2022-09-15T12:21:01.787Z,10
2022-09-15T12:22:01.613Z,15
2022-09-15T12:23:04.499Z,15
2022-09-15T12:24:01.878Z,15
2022-09-15T12:25:06.850Z,15
2022-09-15T12:26:01.751Z,15
2022-09-15T12:27:01.741Z,15
2022-09-15T12:28:01.758Z,15
2022-09-15T12:29:05.104Z,15
2022-09-15T12:30:01.767Z,15
2022-09-15T12:31:02.093Z,15
2022-09-15T12:32:01.763Z,15
2022-09-15T12:33:01.751Z,15
2022-09-15T12:34:04.533Z,10
2022-09-15T12:35:01.782Z,10
2022-09-15T12:36:01.790Z,10
2022-09-15T12:37:02.085Z,10
2022-09-15T12:38:01.778Z,10
2022-09-15T12:39:02.042Z,10
2022-09-15T12:40:05.281Z,10
2022-09-15T12:41:01.777Z,10
2022-09-15T12:42:01.763Z,10
2022-09-15T12:43:01.767Z,10
2022-09-15T12:44:01.897Z,10
2022-09-15T12:45:02.981Z,10
2022-09-15T12:46:02.215Z,10
2022-09-15T12:47:02.024Z,5
2022-09-15T12:48:01.766Z,5
2022-09-15T12:49:01.777Z,5
2022-09-15T12:50:01.829Z,5
2022-09-15T12:51:04.824Z,5
2022-09-15T12:52:01.924Z,10
2022-09-15T12:54:02.161Z,10
2022-09-15T12:55:01.823Z,15
2022-09-15T12:56:04.857Z,15
2022-09-15T12:57:01.791Z,15
2022-09-15T12:58:01.807Z,15
2022-09-15T12:59:07.026Z,15
2022-09-15T13:00:01.826Z,15
2022-09-15T13:01:27.157Z,20
2022-09-15T13:02:05.094Z,20
2022-09-15T13:03:02.193Z,20
2022-09-15T13:04:02.458Z,20
2022-09-15T13:05:01.851Z,20
2022-09-15T13:06:01.837Z,20
2022-09-15T13:07:07.994Z,20
2022-09-15T13:08:01.666Z,20
2022-09-15T13:09:01.869Z,20
2022-09-15T13:10:01.840Z,20
2022-09-15T13:11:01.819Z,20
2022-09-15T13:12:01.822Z,20
2022-09-15T13:13:04.723Z,20
2022-09-15T13:14:01.996Z,20
2022-09-15T13:15:01.671Z,20
2022-09-15T13:16:02.315Z,20
2022-09-15T13:17:01.838Z,20
2022-09-15T13:18:04.632Z,15
2022-09-15T13:19:01.933Z,15
2022-09-15T13:20:01.926Z,15
2022-09-15T13:21:01.834Z,15
2022-09-15T13:22:01.696Z,15
2022-09-15T13:23:01.854Z,20
2022-09-15T13:24:04.711Z,20
2022-09-15T13:25:08.765Z,20
2022-09-15T13:26:01.857Z,20
2022-09-15T13:27:01.897Z,20
2022-09-15T13:28:01.910Z,20
2022-09-15T13:29:06.979Z,20
2022-09-15T13:30:01.912Z,20
2022-09-15T13:31:02.174Z,20
2022-09-15T13:32:01.871Z,20
2022-09-15T13:33:01.955Z,20
2022-09-15T13:35:20.981Z,20
2022-09-15T13:35:31.220Z,20
2022-09-15T13:38:31.792Z,20
2022-09-15T13:38:41.726Z,20
2022-09-15T13:39:44.467Z,20
2022-09-15T13:40:41.695Z,20
2022-09-15T13:41:41.487Z,20
2022-09-15T13:42:41.418Z,20
2022-09-15T13:43:47.920Z,20
2022-09-15T13:44:41.441Z,20
2022-09-15T13:45:41.557Z,20
2022-09-15T13:46:41.583Z,25
2022-09-15T13:47:41.498Z,25
2022-09-15T13:48:44.371Z,30
2022-09-15T13:49:41.428Z,35
2022-09-15T13:50:41.474Z,40
2022-09-15T13:51:41.453Z,55
2022-09-15T13:52:41.457Z,60
2022-09-15T13:53:41.534Z,70
2022-09-15T13:54:44.339Z,60
2022-09-15T13:55:41.534Z,35
2022-09-15T13:59:17.168Z,15
2022-09-15T14:00:31.920Z,15
2022-09-15T14:01:26.789Z,10
2022-09-15T14:02:29.169Z,10
2022-09-15T14:03:29.333Z,10
2022-09-15T14:04:26.465Z,10
2022-09-15T14:05:26.447Z,10
2022-09-15T14:06:26.342Z,10
2022-09-15T14:07:26.496Z,10
2022-09-15T14:08:26.646Z,10
2022-09-15T14:09:29.377Z,15
2022-09-15T14:10:26.492Z,15
2022-09-15T14:11:28.898Z,15
2022-09-15T14:12:26.511Z,20
2022-09-15T14:13:26.802Z,20
2022-09-15T14:14:29.532Z,30
2022-09-15T14:15:26.468Z,25
2022-09-15T14:16:26.774Z,50
2022-09-15T14:17:30.252Z,50
2022-09-15T14:18:26.472Z,40
2022-09-15T14:19:26.505Z,50
2022-09-15T14:20:29.450Z,35
2022-09-15T14:21:26.521Z,30
2022-09-15T14:22:26.499Z,45
2022-09-15T14:23:26.519Z,35
2022-09-15T14:24:26.538Z,35
2022-09-15T14:25:29.282Z,35
2022-09-15T14:26:26.539Z,35
2022-09-15T14:27:26.524Z,25
2022-09-15T14:28:31.834Z,20
2022-09-15T14:29:26.499Z,20
2022-09-15T14:30:26.533Z,20
2022-09-15T14:31:30.433Z,20
2022-09-15T14:32:26.533Z,20
2022-09-15T14:33:26.532Z,20
2022-09-15T14:34:26.713Z,20
2022-09-15T14:35:28.953Z,15
2022-09-15T14:36:29.617Z,15
2022-09-15T14:37:26.824Z,15
2022-09-15T14:38:26.611Z,15
2022-09-15T14:39:28.991Z,15
2022-09-15T14:40:27.073Z,20
2022-09-15T14:41:26.660Z,20
2022-09-15T14:42:33.497Z,20
2022-09-15T14:43:28.573Z,25